Time;durP1;ratioP1;P1;durP2;ratioP2;P2;SDS_P1;SDS_P2;PMS_P1;PMS_P2;Temp;Humidity;BMP_temperature;BMP_pressure;BME280_temperature;BME280_humidity;BME280_pressure;Samples;Min_cycle;Max_cycle;Signal;HPM_P1;HPM_P2
2021/05/20 00:00:29;;;;;;;4.03;3.63;;;;;;;;;;4998117;28;20415;-85
2021/05/20 00:02:55;;;;;;;3.10;2.80;;;;;;;;;;5012767;28;20412;-84
2021/05/20 00:05:21;;;;;;;3.80;3.53;;;;;;;;;;5001915;28;20458;-83
2021/05/20 00:07:47;;;;;;;3.30;3.00;;;;;;;;;;5018926;28;20412;-84
2021/05/20 00:10:14;;;;;;;3.13;2.83;;;;;;;;;;5016855;28;20420;-85
2021/05/20 00:12:40;;;;;;;3.50;3.20;;;;;;;;;;5002652;28;20407;-85
2021/05/20 00:15:10;;;;;;;3.93;3.63;;;;;;;;;;5005497;28;20454;-84
2021/05/20 00:17:36;;;;;;;4.70;3.57;;;;;;;;;;5002146;28;20494;-84
2021/05/20 00:20:06;;;;;;;4.90;4.50;;;;;;;;;;5002301;28;20959;-85
2021/05/20 00:22:32;;;;;;;5.40;3.93;;;;;;;;;;5001486;28;20526;-83
2021/05/20 00:24:58;;;;;;;4.27;3.97;;;;;;;;;;5000913;28;20481;-85
2021/05/20 00:27:24;;;;;;;3.30;3.10;;;;;;;;;;5000724;28;20772;-84
2021/05/20 00:29:50;;;;;;;3.50;3.20;;;;;;;;;;5002380;28;20419;-85
2021/05/20 00:32:19;;;;;;;3.87;3.50;;;;;;;;;;5000248;28;20447;-85
2021/05/20 00:34:45;;;;;;;5.33;4.40;;;;;;;;;;5001074;28;20526;-84
2021/05/20 00:37:11;;;;;;;3.57;3.30;;;;;;;;;;5002059;28;20411;-84
2021/05/20 00:39:37;;;;;;;3.47;3.27;;;;;;;;;;5001102;28;20760;-85
2021/05/20 00:42:07;;;;;;;10.03;3.87;;;;;;;;;;4984996;28;20451;-83
2021/05/20 00:44:33;;;;;;;3.83;3.53;;;;;;;;;;5000791;28;20450;-83
2021/05/20 00:46:59;;;;;;;3.57;3.27;;;;;;;;;;5001642;28;20912;-86
2021/05/20 00:49:25;;;;;;;4.03;3.73;;;;;;;;;;5000391;28;20491;-85
2021/05/20 00:51:51;;;;;;;4.20;3.80;;;;;;;;;;5002332;28;20451;-85
2021/05/20 00:54:17;;;;;;;3.53;3.23;;;;;;;;;;5000814;28;20473;-85
2021/05/20 00:56:44;;;;;;;3.97;3.40;;;;;;;;;;4986939;28;20419;-83
2021/05/20 00:59:10;;;;;;;3.63;3.43;;;;;;;;;;4989500;28;20431;-85
2021/05/20 01:01:36;;;;;;;4.03;3.73;;;;;;;;;;5004470;28;20919;-83
2021/05/20 01:04:02;;;;;;;5.60;3.67;;;;;;;;;;5008857;28;20502;-85
2021/05/20 01:06:28;;;;;;;4.33;3.93;;;;;;;;;;5013481;28;20478;-84
2021/05/20 01:08:57;;;;;;;3.60;3.40;;;;;;;;;;5012694;28;20415;-83
2021/05/20 01:11:24;;;;;;;4.60;4.30;;;;;;;;;;4984718;28;20456;-84
2021/05/20 01:13:50;;;;;;;3.30;3.00;;;;;;;;;;5000557;28;20439;-85
2021/05/20 01:18:56;;;;;;;6.20;3.97;;;;;;;;;;5022467;28;20458;-83
2021/05/20 01:21:48;;;;;;;3.93;3.60;;;;;;;;;;5025502;28;20399;-83
2021/05/20 01:25:04;;;;;;;3.13;2.90;;;;;;;;;;5024386;28;20442;-84
2021/05/20 01:28:05;;;;;;;4.60;4.30;;;;;;;;;;5001184;28;20913;-85
2021/05/20 01:34:09;;;;;;;4.17;3.30;;;;;;;;;;5020694;28;20435;-83
2021/05/20 01:36:56;;;;;;;3.90;3.60;;;;;;;;;;5022841;28;20449;-84
2021/05/20 01:39:38;;;;;;;4.20;3.90;;;;;;;;;;5024220;28;20499;-82
2021/05/20 01:42:44;;;;;;;3.43;3.23;;;;;;;;;;4988363;28;20768;-83
2021/05/20 01:47:59;;;;;;;2.73;2.63;;;;;;;;;;5379518;22;20495;-83
2021/05/20 01:54:18;;;;;;;3.67;3.37;;;;;;;;;;4995944;28;20412;-84
2021/05/20 02:00:02;;;;;;;2.83;2.63;;;;;;;;;;4990554;28;20403;-84
2021/05/20 02:02:58;;;;;;;3.43;3.23;;;;;;;;;;4990658;28;20398;-84
2021/05/20 02:05:57;;;;;;;;;;;;;;;;;;;;;
2021/05/20 02:09:15;;;;;;;5.10;3.37;;;;;;;;;;5006292;28;20422;-82
2021/05/20 02:12:25;;;;;;;3.77;3.47;;;;;;;;;;4916460;29;20456;-83
2021/05/20 02:15:48;;;;;;;;;;;;;;;;;;;;;
2021/05/20 02:19:28;;;;;;;3.00;2.80;;;;;;;;;;4905655;29;20500;-84
2021/05/20 02:22:43;;;;;;;2.93;2.73;;;;;;;;;;4900376;29;20504;-84
2021/05/20 02:26:20;;;;;;;4.70;3.23;;;;;;;;;;4972301;23;20564;-84
2021/05/20 02:29:09;;;;;;;3.33;3.03;;;;;;;;;;5032926;28;20399;-82
2021/05/20 02:32:23;;;;;;;;;;;;;;;;;;;;;
2021/05/20 02:35:12;;;;;;;3.60;3.10;;;;;;;;;;5059477;22;20514;-82
2021/05/20 02:41:01;;;;;;;3.53;3.33;;;;;;;;;;5005666;28;20415;-82
2021/05/20 02:44:36;;;;;;;;;;;;;;;;;;;;;
2021/05/20 02:47:27;;;;;;;4.40;3.60;;;;;;;;;;4994316;28;20443;-82
2021/05/20 02:49:54;;;;;;;5.10;3.13;;;;;;;;;;5025467;23;20533;-83
2021/05/20 02:52:20;;;;;;;3.27;3.00;;;;;;;;;;5004618;28;21001;-84
2021/05/20 02:54:46;;;;;;;4.10;3.53;;;;;;;;;;5024211;28;20421;-83
2021/05/20 02:57:12;;;;;;;3.20;3.00;;;;;;;;;;5006208;28;20407;-84
2021/05/20 02:59:38;;;;;;;3.97;3.63;;;;;;;;;;5021157;28;20504;-85
2021/05/20 03:02:06;;;;;;;3.33;3.13;;;;;;;;;;5023100;28;20415;-85
2021/05/20 03:04:33;;;;;;;4.07;3.70;;;;;;;;;;5022628;28;20505;-84
2021/05/20 03:06:59;;;;;;;4.97;3.53;;;;;;;;;;5006246;28;20923;-84
2021/05/20 03:09:25;;;;;;;3.07;2.87;;;;;;;;;;5024723;28;20435;-84
2021/05/20 03:11:53;;;;;;;3.30;3.10;;;;;;;;;;5033760;28;20469;-83
2021/05/20 03:14:20;;;;;;;3.73;3.33;;;;;;;;;;5037971;28;20498;-81
2021/05/20 03:16:46;;;;;;;3.63;3.43;;;;;;;;;;5038668;28;20422;-84
2021/05/20 03:19:12;;;;;;;4.37;3.47;;;;;;;;;;5034942;28;20427;-82
2021/05/20 03:21:38;;;;;;;4.13;3.80;;;;;;;;;;5020970;28;20440;-84
2021/05/20 03:24:05;;;;;;;3.87;3.57;;;;;;;;;;5027762;28;20403;-83
2021/05/20 03:26:31;;;;;;;3.27;2.90;;;;;;;;;;5039425;28;20429;-86
2021/05/20 03:28:57;;;;;;;4.43;4.13;;;;;;;;;;5039324;28;20935;-84
2021/05/20 03:31:23;;;;;;;4.23;3.93;;;;;;;;;;5039999;28;20493;-84
2021/05/20 03:33:50;;;;;;;5.77;5.30;;;;;;;;;;5031613;28;20452;-84
2021/05/20 03:36:16;;;;;;;4.90;4.60;;;;;;;;;;5006376;28;20923;-85
2021/05/20 03:38:42;;;;;;;6.03;5.23;;;;;;;;;;5021569;28;20436;-85
2021/05/20 03:41:08;;;;;;;4.87;4.47;;;;;;;;;;5005266;28;20422;-85
2021/05/20 03:43:34;;;;;;;5.40;5.00;;;;;;;;;;5005105;28;20429;-85
2021/05/20 03:46:00;;;;;;;5.10;4.70;;;;;;;;;;5022104;28;20418;-84
2021/05/20 03:48:26;;;;;;;5.10;4.80;;;;;;;;;;5025743;28;20438;-83
2021/05/20 03:50:54;;;;;;;5.53;5.13;;;;;;;;;;5027144;28;20435;-84
2021/05/20 03:53:20;;;;;;;6.10;5.70;;;;;;;;;;5026060;28;20410;-84
2021/05/20 03:55:48;;;;;;;6.50;5.90;;;;;;;;;;5010048;28;20430;-84
2021/05/20 03:58:14;;;;;;;6.73;6.17;;;;;;;;;;5025128;28;20414;-84
2021/05/20 04:00:40;;;;;;;5.50;5.10;;;;;;;;;;5005477;28;20427;-85
2021/05/20 04:03:06;;;;;;;6.50;6.10;;;;;;;;;;5022643;28;20418;-84
2021/05/20 04:05:32;;;;;;;6.20;5.70;;;;;;;;;;5023594;28;20415;-84
2021/05/20 04:07:59;;;;;;;5.60;5.20;;;;;;;;;;5021390;28;20415;-84
2021/05/20 04:10:25;;;;;;;5.87;5.30;;;;;;;;;;5022474;28;20438;-84
2021/05/20 04:12:51;;;;;;;5.70;5.30;;;;;;;;;;5024300;28;20892;-83
2021/05/20 04:15:17;;;;;;;7.17;5.67;;;;;;;;;;5021416;28;20407;-84
2021/05/20 04:17:46;;;;;;;6.70;6.20;;;;;;;;;;5020036;28;20417;-85
2021/05/20 04:20:13;;;;;;;5.70;5.20;;;;;;;;;;5004298;28;20450;-85
2021/05/20 04:22:39;;;;;;;5.90;5.27;;;;;;;;;;5004068;28;20438;-84
2021/05/20 04:25:05;;;;;;;6.50;5.60;;;;;;;;;;5023270;28;20403;-82
2021/05/20 04:27:31;;;;;;;7.83;7.23;;;;;;;;;;5031505;28;20462;-82
2021/05/20 04:30:03;;;;;;;6.30;5.80;;;;;;;;;;5006685;28;20446;-85
2021/05/20 04:32:29;;;;;;;6.30;5.80;;;;;;;;;;5023870;28;20454;-85
2021/05/20 04:34:55;;;;;;;6.60;6.17;;;;;;;;;;5022765;28;20453;-85
2021/05/20 04:37:21;;;;;;;6.43;5.83;;;;;;;;;;5021275;28;20403;-85
2021/05/20 04:39:50;;;;;;;7.33;6.73;;;;;;;;;;5005254;28;20482;-85
2021/05/20 04:42:16;;;;;;;6.40;6.00;;;;;;;;;;5021659;28;20439;-84
2021/05/20 04:44:43;;;;;;;7.40;6.90;;;;;;;;;;5022194;28;20419;-85
2021/05/20 04:47:09;;;;;;;6.93;6.40;;;;;;;;;;5005938;28;20431;-85
2021/05/20 04:49:38;;;;;;;7.60;7.07;;;;;;;;;;5020915;28;20454;-84
2021/05/20 04:52:04;;;;;;;8.00;7.30;;;;;;;;;;5022429;28;20454;-85
2021/05/20 04:54:30;;;;;;;6.90;6.40;;;;;;;;;;5021074;28;20399;-85
2021/05/20 04:56:56;;;;;;;9.50;8.77;;;;;;;;;;5003700;28;20415;-85
2021/05/20 04:59:22;;;;;;;7.03;6.53;;;;;;;;;;5019347;28;20426;-84
2021/05/20 05:01:48;;;;;;;8.07;7.47;;;;;;;;;;5020807;28;20781;-85
2021/05/20 05:04:14;;;;;;;7.47;6.97;;;;;;;;;;5006977;28;20439;-83
2021/05/20 05:06:40;;;;;;;7.73;7.17;;;;;;;;;;5034692;28;20439;-84
2021/05/20 05:09:06;;;;;;;7.33;6.73;;;;;;;;;;5035743;28;20439;-84
2021/05/20 05:11:32;;;;;;;7.83;7.27;;;;;;;;;;5020183;28;20540;-83
2021/05/20 05:13:58;;;;;;;8.30;7.60;;;;;;;;;;5030475;28;20414;-84
2021/05/20 05:16:25;;;;;;;9.00;6.97;;;;;;;;;;5005125;28;20414;-85
2021/05/20 05:18:51;;;;;;;7.43;6.80;;;;;;;;;;5021526;28;20513;-85
2021/05/20 05:21:17;;;;;;;6.67;6.10;;;;;;;;;;5020579;28;20886;-85
2021/05/20 05:23:44;;;;;;;8.17;7.50;;;;;;;;;;5026084;28;20500;-85
2021/05/20 05:26:10;;;;;;;7.73;6.63;;;;;;;;;;5030051;28;20433;-83
2021/05/20 05:28:37;;;;;;;6.17;5.70;;;;;;;;;;5011856;28;20488;-82
2021/05/20 05:31:07;;;;;;;7.50;6.90;;;;;;;;;;5013234;28;20454;-81
2021/05/20 05:33:33;;;;;;;6.40;6.00;;;;;;;;;;5013760;28;20409;-83
2021/05/20 05:36:09;;;;;;;6.77;6.20;;;;;;;;;;5013525;28;20418;-82
2021/05/20 05:38:35;;;;;;;6.23;5.83;;;;;;;;;;5007336;28;20427;-84
2021/05/20 05:41:02;;;;;;;6.20;5.80;;;;;;;;;;5021940;28;20558;-85
2021/05/20 05:43:31;;;;;;;6.77;6.30;;;;;;;;;;5021129;28;20931;-85
2021/05/20 05:45:57;;;;;;;7.73;7.00;;;;;;;;;;5021393;28;20415;-85
2021/05/20 05:48:23;;;;;;;7.47;6.93;;;;;;;;;;5020547;28;20557;-85
2021/05/20 05:50:55;;;;;;;7.93;7.37;;;;;;;;;;5004990;28;20449;-86
2021/05/20 05:53:25;;;;;;;7.37;6.73;;;;;;;;;;5007777;28;20415;-84
2021/05/20 05:55:51;;;;;;;8.20;7.50;;;;;;;;;;5026114;28;20420;-83
2021/05/20 05:58:18;;;;;;;7.10;6.60;;;;;;;;;;5030069;28;20431;-84
2021/05/20 06:00:46;;;;;;;6.50;5.90;;;;;;;;;;5029232;28;20490;-85
2021/05/20 06:03:15;;;;;;;7.00;6.30;;;;;;;;;;5032072;28;20411;-85
2021/05/20 06:05:42;;;;;;;7.10;6.60;;;;;;;;;;5028634;28;20432;-86
2021/05/20 06:08:11;;;;;;;6.53;6.13;;;;;;;;;;5008940;28;20513;-86
2021/05/20 06:10:37;;;;;;;7.97;7.20;;;;;;;;;;5008063;28;20438;-86
2021/05/20 06:13:03;;;;;;;6.87;6.27;;;;;;;;;;5008368;28;20418;-86
2021/05/20 06:15:30;;;;;;;7.57;6.87;;;;;;;;;;5007093;28;20403;-87
2021/05/20 06:17:56;;;;;;;7.00;6.50;;;;;;;;;;5025507;28;20411;-83
2021/05/20 06:20:22;;;;;;;7.80;7.10;;;;;;;;;;5007989;28;20420;-84
2021/05/20 06:22:49;;;;;;;7.33;6.70;;;;;;;;;;5008613;28;20427;-85
2021/05/20 06:25:15;;;;;;;7.43;6.83;;;;;;;;;;5027228;28;20408;-86
2021/05/20 06:27:41;;;;;;;6.23;5.73;;;;;;;;;;5009367;28;20415;-85
2021/05/20 06:30:07;;;;;;;7.17;6.60;;;;;;;;;;5025878;28;20462;-85
2021/05/20 06:32:35;;;;;;;6.30;5.70;;;;;;;;;;5233367;22;20495;-85
2021/05/20 06:35:04;;;;;;;7.60;6.80;;;;;;;;;;5013232;28;20383;-85
2021/05/20 06:37:36;;;;;;;7.03;6.43;;;;;;;;;;5016625;28;20360;-84
2021/05/20 06:40:08;;;;;;;6.97;6.33;;;;;;;;;;4994160;28;20448;-84
2021/05/20 06:42:34;;;;;;;8.30;7.60;;;;;;;;;;5002657;28;20562;-84
2021/05/20 07:01:15;;;;;;;8.40;7.50;;;;;;;;;;1497266;26;20456;-83
2021/05/20 07:03:43;;;;;;;6.00;5.50;;;;;;;;;;5026516;28;20411;-83
2021/05/20 07:06:10;;;;;;;8.20;5.80;;;;;;;;;;5010193;28;20947;-82
2021/05/20 07:11:42;;;;;;;6.80;5.90;;;;;;;;;;4987389;28;20448;-83
2021/05/20 07:21:05;;;;;;;6.00;5.50;;;;;;;;;;5008904;28;20396;-84
2021/05/20 07:23:37;;;;;;;5.23;4.77;;;;;;;;;;5007413;28;20407;-84
2021/05/20 07:26:06;;;;;;;4.30;4.00;;;;;;;;;;5007861;28;20942;-83
2021/05/20 07:28:32;;;;;;;6.97;3.90;;;;;;;;;;4990731;28;20445;-83
2021/05/20 07:30:59;;;;;;;6.63;3.63;;;;;;;;;;4991939;28;20478;-86
2021/05/20 07:33:30;;;;;;;3.10;2.80;;;;;;;;;;4991347;28;20820;-86
2021/05/20 07:36:02;;;;;;;2.80;2.60;;;;;;;;;;5005689;28;20505;-86
2021/05/20 07:38:39;;;;;;;2.97;2.70;;;;;;;;;;4989044;28;20414;-86
2021/05/20 07:41:34;;;;;;;;;;;;;;;;;;;;;
2021/05/20 07:44:14;;;;;;;4.07;3.67;;;;;;;;;;5006116;28;20433;-86
2021/05/20 07:50:08;;;;;;;4.73;3.73;;;;;;;;;;5000020;28;20502;-84
2021/05/20 07:52:34;;;;;;;7.80;4.10;;;;;;;;;;5019275;28;20481;-83
2021/05/20 07:57:45;;;;;;;4.50;3.73;;;;;;;;;;5037738;28;20449;-84
2021/05/20 08:00:15;;;;;;;3.90;3.60;;;;;;;;;;5033600;28;20506;-85
2021/05/20 08:05:23;;;;;;;3.30;3.00;;;;;;;;;;5028284;28;20438;-85
2021/05/20 08:11:03;;;;;;;4.83;3.80;;;;;;;;;;5022458;23;20483;-85
2021/05/20 08:14:14;;;;;;;3.20;3.00;;;;;;;;;;4990557;28;20443;-85
2021/05/20 08:17:06;;;;;;;4.23;3.00;;;;;;;;;;5010156;28;20442;-83
2021/05/20 08:19:57;;;;;;;;;;;;;;;;;;;;;
2021/05/20 08:23:01;;;;;;;3.63;3.03;;;;;;;;;;5009464;28;20423;-85
2021/05/20 10:30:36;;;;;;;2.00;1.80;;;;;;;;;;5171789;23;20510;-81
2021/05/20 10:33:03;;;;;;;3.87;2.20;;;;;;;;;;5006182;28;20952;-81
2021/05/20 10:36:01;;;;;;;5.83;2.63;;;;;;;;;;5005871;28;20419;-82
2021/05/20 10:38:32;;;;;;;4.53;3.00;;;;;;;;;;5006774;28;20824;-82
2021/05/20 10:41:25;;;;;;;2.63;2.03;;;;;;;;;;5007133;28;20442;-82
2021/05/20 10:44:01;;;;;;;2.43;2.23;;;;;;;;;;5006672;28;20495;-82
2021/05/20 10:46:27;;;;;;;2.50;2.30;;;;;;;;;;4992753;28;20441;-81
2021/05/20 10:49:18;;;;;;;3.07;2.80;;;;;;;;;;4998618;28;20422;-83
2021/05/20 10:51:47;;;;;;;1.73;1.63;;;;;;;;;;5013539;28;20462;-83
2021/05/20 10:54:16;;;;;;;3.67;2.80;;;;;;;;;;4994432;28;20426;-80
2021/05/20 10:56:53;;;;;;;2.90;1.70;;;;;;;;;;5009763;28;20460;-83
2021/05/20 10:59:34;;;;;;;1.70;1.60;;;;;;;;;;4994494;28;20452;-82
2021/05/20 11:02:01;;;;;;;2.60;2.40;;;;;;;;;;5012014;28;20430;-83
2021/05/20 11:04:35;;;;;;;2.10;2.00;;;;;;;;;;5011265;28;20411;-82
2021/05/20 11:07:02;;;;;;;7.70;7.10;;;;;;;;;;5010456;28;20414;-82
2021/05/20 11:09:48;;;;;;;3.33;3.10;;;;;;;;;;5011922;28;20406;-82
2021/05/20 11:12:15;;;;;;;2.30;2.10;;;;;;;;;;5011934;28;20489;-81
2021/05/20 11:14:42;;;;;;;3.50;3.20;;;;;;;;;;4994969;28;20411;-81
2021/05/20 11:17:27;;;;;;;3.10;2.80;;;;;;;;;;5011800;28;20412;-82
2021/05/20 11:20:14;;;;;;;1.60;1.50;;;;;;;;;;5010569;28;20433;-82
2021/05/20 11:23:04;;;;;;;2.87;2.63;;;;;;;;;;5015856;28;20434;-81
2021/05/20 11:25:33;;;;;;;2.40;2.20;;;;;;;;;;5009224;28;20414;-82
2021/05/20 11:28:07;;;;;;;3.13;2.60;;;;;;;;;;5010896;28;20411;-81
2021/05/20 11:30:33;;;;;;;3.00;2.77;;;;;;;;;;5009208;28;20435;-82
2021/05/20 11:33:03;;;;;;;3.63;2.50;;;;;;;;;;5008306;28;20439;-82
2021/05/20 11:35:54;;;;;;;1.80;1.70;;;;;;;;;;4992276;28;20419;-81
2021/05/20 11:38:27;;;;;;;2.60;2.27;;;;;;;;;;5009798;28;20391;-82
2021/05/20 11:40:54;;;;;;;3.10;2.53;;;;;;;;;;5007215;28;20435;-81
2021/05/20 11:43:27;;;;;;;2.53;1.97;;;;;;;;;;5007654;28;20431;-82
2021/05/20 11:45:53;;;;;;;2.90;2.10;;;;;;;;;;5008361;28;20419;-81
2021/05/20 11:48:26;;;;;;;3.00;1.63;;;;;;;;;;4992401;28;20908;-82
2021/05/20 11:50:56;;;;;;;2.53;1.77;;;;;;;;;;5007431;28;20424;-82
2021/05/20 11:53:26;;;;;;;1.80;1.70;;;;;;;;;;5008908;28;20419;-82
2021/05/20 11:56:13;;;;;;;1.70;1.60;;;;;;;;;;5008770;28;20438;-82
2021/05/20 11:58:46;;;;;;;2.00;1.80;;;;;;;;;;4994304;28;20399;-82
2021/05/20 12:04:41;;;;;;;2.17;1.77;;;;;;;;;;4974635;29;20432;-83
2021/05/20 12:07:17;;;;;;;1.90;1.77;;;;;;;;;;4952688;29;20427;-83
2021/05/20 12:09:44;;;;;;;3.83;1.77;;;;;;;;;;4952916;29;20506;-84
2021/05/20 12:12:16;;;;;;;1.63;1.53;;;;;;;;;;4970438;29;20464;-84
2021/05/20 12:15:03;;;;;;;4.17;2.93;;;;;;;;;;4957387;29;20593;-84
2021/05/20 12:17:29;;;;;;;3.00;1.90;;;;;;;;;;4975683;29;20427;-83
2021/05/20 12:19:59;;;;;;;2.83;1.57;;;;;;;;;;4956474;29;20417;-83
2021/05/20 12:22:30;;;;;;;2.17;1.50;;;;;;;;;;4952496;29;20444;-83
2021/05/20 12:25:08;;;;;;;3.53;1.37;;;;;;;;;;4953421;29;20533;-84
2021/05/20 12:27:37;;;;;;;1.27;1.17;;;;;;;;;;4968616;29;20480;-83
2021/05/20 12:30:08;;;;;;;1.60;1.50;;;;;;;;;;4952739;29;20439;-82
2021/05/20 12:32:44;;;;;;;1.70;1.43;;;;;;;;;;4968749;29;20503;-82
2021/05/20 12:35:24;;;;;;;1.77;1.63;;;;;;;;;;4955302;29;20510;-83
2021/05/20 12:37:50;;;;;;;1.70;1.60;;;;;;;;;;4953331;29;20599;-83
2021/05/20 12:40:18;;;;;;;2.23;1.40;;;;;;;;;;4970986;28;20426;-83
2021/05/20 12:42:53;;;;;;;2.63;2.13;;;;;;;;;;5009853;28;20401;-83
2021/05/20 12:45:27;;;;;;;1.47;1.37;;;;;;;;;;5007929;28;20522;-82
2021/05/20 12:47:54;;;;;;;3.13;2.07;;;;;;;;;;5008123;28;20415;-83
2021/05/20 12:50:33;;;;;;;2.17;1.90;;;;;;;;;;5007663;28;20430;-81
2021/05/20 12:53:00;;;;;;;2.30;2.20;;;;;;;;;;5007219;28;20508;-81
2021/05/20 12:55:45;;;;;;;2.60;2.40;;;;;;;;;;5006474;28;20411;-82
2021/05/20 12:58:14;;;;;;;3.13;2.27;;;;;;;;;;5007081;28;20391;-81
2021/05/20 13:00:56;;;;;;;3.00;2.63;;;;;;;;;;5006837;28;20419;-83
2021/05/20 13:03:26;;;;;;;1.43;1.33;;;;;;;;;;5009916;28;20431;-82
2021/05/20 13:05:56;;;;;;;4.00;1.83;;;;;;;;;;4990258;28;20509;-83
2021/05/20 13:08:24;;;;;;;2.33;2.10;;;;;;;;;;5007696;28;20419;-83
2021/05/20 13:10:57;;;;;;;1.77;1.67;;;;;;;;;;5007501;28;20486;-84
2021/05/20 13:13:53;;;;;;;2.50;1.57;;;;;;;;;;5007113;28;20420;-83
2021/05/20 13:16:35;;;;;;;1.60;1.10;;;;;;;;;;5008273;28;20408;-84
2021/05/20 13:24:54;;;;;;;4.07;2.10;;;;;;;;;;5006142;28;20491;-83
2021/05/20 13:27:21;;;;;;;1.60;1.50;;;;;;;;;;5006926;28;20415;-82
2021/05/20 13:29:52;;;;;;;2.10;1.30;;;;;;;;;;4990495;28;20447;-83
2021/05/20 13:34:50;;;;;;;3.20;1.87;;;;;;;;;;5009262;28;20419;-82
2021/05/20 13:37:17;;;;;;;1.23;1.10;;;;;;;;;;5010076;28;20430;-81
2021/05/20 13:39:44;;;;;;;1.43;0.90;;;;;;;;;;5007991;28;20416;-84
2021/05/20 13:42:12;;;;;;;2.70;1.87;;;;;;;;;;5007171;28;20466;-84
2021/05/20 13:44:54;;;;;;;2.83;2.00;;;;;;;;;;5006239;28;20420;-84
2021/05/20 13:47:24;;;;;;;1.10;0.90;;;;;;;;;;5007449;28;20384;-82
2021/05/20 13:49:51;;;;;;;1.27;1.17;;;;;;;;;;4990305;28;20559;-81
2021/05/20 13:52:20;;;;;;;1.40;1.30;;;;;;;;;;4991520;28;20609;-82
2021/05/20 13:54:48;;;;;;;1.50;1.20;;;;;;;;;;5008827;28;20408;-83
2021/05/20 13:57:15;;;;;;;1.47;1.00;;;;;;;;;;5011753;28;20402;-82
2021/05/20 13:59:45;;;;;;;1.40;1.30;;;;;;;;;;5010143;28;20404;-83
2021/05/20 14:02:14;;;;;;;3.20;1.10;;;;;;;;;;4996781;28;20463;-83
2021/05/20 14:04:40;;;;;;;2.27;1.50;;;;;;;;;;5017752;28;20392;-83
2021/05/20 14:07:15;;;;;;;2.80;1.20;;;;;;;;;;5016979;28;20427;-82
2021/05/20 14:09:42;;;;;;;1.23;1.13;;;;;;;;;;5000920;28;20420;-82
2021/05/20 14:12:10;;;;;;;0.90;0.90;;;;;;;;;;5011377;28;20470;-84
2021/05/20 14:14:37;;;;;;;2.33;1.00;;;;;;;;;;5009324;28;20407;-83
2021/05/20 14:17:05;;;;;;;2.77;1.33;;;;;;;;;;5006567;28;20424;-83
2021/05/20 14:19:35;;;;;;;1.83;1.67;;;;;;;;;;5008508;28;20387;-84
2021/05/20 14:22:03;;;;;;;2.40;1.77;;;;;;;;;;5006706;28;20513;-83
2021/05/20 14:24:32;;;;;;;2.97;1.60;;;;;;;;;;5009408;28;20420;-84
2021/05/20 14:27:01;;;;;;;1.90;1.80;;;;;;;;;;5010415;28;20392;-82
2021/05/20 14:29:30;;;;;;;5.60;3.20;;;;;;;;;;5009856;28;20419;-84
2021/05/20 14:31:56;;;;;;;1.20;1.10;;;;;;;;;;5011708;28;20550;-85
2021/05/20 14:34:26;;;;;;;1.10;0.90;;;;;;;;;;5010302;28;20427;-84
2021/05/20 14:36:53;;;;;;;1.40;0.90;;;;;;;;;;5010277;28;20423;-83
2021/05/20 14:39:19;;;;;;;1.30;1.20;;;;;;;;;;5012215;28;20399;-84
2021/05/20 14:41:46;;;;;;;1.10;1.00;;;;;;;;;;4995927;28;20447;-84
2021/05/20 14:44:15;;;;;;;2.17;1.60;;;;;;;;;;5016950;28;20916;-84
2021/05/20 14:46:41;;;;;;;4.13;1.77;;;;;;;;;;5003184;28;20426;-83
2021/05/20 14:49:12;;;;;;;1.77;1.30;;;;;;;;;;4999644;28;20419;-81
2021/05/20 14:51:42;;;;;;;1.30;1.20;;;;;;;;;;5009874;28;20519;-83
2021/05/20 14:54:19;;;;;;;1.20;1.00;;;;;;;;;;5011926;28;20424;-82
2021/05/20 15:05:10;;;;;;;2.40;1.33;;;;;;;;;;5012508;28;20416;-83
2021/05/20 15:07:42;;;;;;;1.57;1.43;;;;;;;;;;4997761;28;20420;-83
2021/05/20 15:15:17;;;;;;;1.43;1.33;;;;;;;;;;5010939;28;20455;-83
2021/05/20 15:17:57;;;;;;;2.10;1.50;;;;;;;;;;4995099;28;20908;-81
2021/05/20 15:20:30;;;;;;;1.80;1.50;;;;;;;;;;4992856;28;20515;-83
2021/05/20 15:22:57;;;;;;;1.30;1.10;;;;;;;;;;5007539;28;20439;-81
2021/05/20 15:25:30;;;;;;;2.10;1.90;;;;;;;;;;5006943;28;20466;-83
2021/05/20 15:27:58;;;;;;;2.50;1.10;;;;;;;;;;5008486;28;20389;-81
2021/05/20 15:33:07;;;;;;;1.03;0.93;;;;;;;;;;5081561;22;20486;-82
2021/05/20 15:35:33;;;;;;;3.20;1.60;;;;;;;;;;4991587;28;20404;-83
2021/05/20 15:38:00;;;;;;;1.97;1.00;;;;;;;;;;5007195;28;20415;-82
2021/05/20 15:40:35;;;;;;;1.40;1.30;;;;;;;;;;5006334;28;20423;-84
2021/05/20 15:43:02;;;;;;;3.27;1.33;;;;;;;;;;5007572;28;20411;-84
2021/05/20 15:45:28;;;;;;;3.33;1.30;;;;;;;;;;5010132;28;20427;-83
2021/05/20 15:50:41;;;;;;;2.73;1.27;;;;;;;;;;5008625;28;20416;-82
2021/05/20 15:53:09;;;;;;;3.23;1.23;;;;;;;;;;5010905;28;20509;-83
2021/05/20 15:55:35;;;;;;;1.40;1.27;;;;;;;;;;5010673;28;20412;-82
2021/05/20 15:58:01;;;;;;;4.07;1.77;;;;;;;;;;5006387;28;20420;-83
2021/05/20 16:00:27;;;;;;;3.10;2.43;;;;;;;;;;5010421;28;20495;-83
2021/05/20 16:02:53;;;;;;;2.70;1.63;;;;;;;;;;4994787;28;20419;-83
2021/05/20 16:05:22;;;;;;;1.83;1.50;;;;;;;;;;5008267;28;20424;-81
2021/05/20 16:08:07;;;;;;;1.47;1.37;;;;;;;;;;5012563;28;20408;-83
2021/05/20 16:13:56;;;;;;;2.70;2.50;;;;;;;;;;4955716;28;21034;-82
2021/05/20 16:16:25;;;;;;;2.33;2.13;;;;;;;;;;5007118;28;20404;-82
2021/05/20 16:18:51;;;;;;;1.20;1.10;;;;;;;;;;5007348;28;20488;-83
2021/05/20 16:21:23;;;;;;;3.60;1.50;;;;;;;;;;4991142;28;20478;-82
2021/05/20 16:24:15;;;;;;;1.37;1.27;;;;;;;;;;5009077;28;20392;-82
2021/05/20 16:38:35;;;;;;;3.90;2.10;;;;;;;;;;4963120;29;20452;-85
2021/05/20 16:41:25;;;;;;;1.60;1.30;;;;;;;;;;4891907;29;20552;-84
2021/05/20 16:44:58;;;;;;;2.73;1.20;;;;;;;;;;4976072;28;20490;-85
2021/05/20 16:47:47;;;;;;;1.43;1.23;;;;;;;;;;5002372;28;20426;-84
2021/05/20 16:53:12;;;;;;;3.00;1.30;;;;;;;;;;4740784;26;20476;-86
2021/05/20 16:56:10;;;;;;;1.47;1.20;;;;;;;;;;5000964;28;20419;-85
2021/05/20 16:58:59;;;;;;;;;;;;;;;;;;;;;
2021/05/20 17:02:24;;;;;;;3.43;1.43;;;;;;;;;;5002286;28;20463;-86
2021/05/20 17:04:56;;;;;;;3.87;1.77;;;;;;;;;;4991044;28;20411;-85
2021/05/20 17:08:05;;;;;;;4.93;1.30;;;;;;;;;;5001850;28;20456;-86
2021/05/20 17:10:41;;;;;;;1.87;1.53;;;;;;;;;;4997868;28;20425;-84
2021/05/20 17:13:56;;;;;;;;;;;;;;;;;;;;;
2021/05/20 17:19:54;;;;;;;3.10;2.80;;;;;;;;;;4962023;29;20435;-85
2021/05/20 17:22:49;;;;;;;;;;;;;;;;;;;;;
2021/05/20 17:29:29;;;;;;;1.00;0.80;;;;;;;;;;5024655;23;20555;-85
2021/05/20 17:32:51;;;;;;;1.30;1.20;;;;;;;;;;4961861;29;20479;-85
2021/05/20 17:35:54;;;;;;;;;;;;;;;;;;;;;
2021/05/20 17:39:24;;;;;;;;;;;;;;;;;;;;;
2021/05/20 17:45:28;;;;;;;2.00;1.90;;;;;;;;;;3322985;26;20474;-85
2021/05/20 17:51:10;;;;;;;2.33;1.40;;;;;;;;;;4988110;28;20494;-87
2021/05/20 17:53:52;;;;;;;3.73;1.60;;;;;;;;;;5012107;28;20460;-85
2021/05/20 17:56:55;;;;;;;;;;;;;;;;;;;;;
2021/05/20 18:03:14;;;;;;;;;;;;;;;;;;;;;
2021/05/20 18:06:06;;;;;;;1.67;1.57;;;;;;;;;;5012728;28;20447;-84
2021/05/20 18:08:43;;;;;;;1.60;1.50;;;;;;;;;;4993253;28;20484;-84
2021/05/20 18:14:08;;;;;;;2.53;2.00;;;;;;;;;;4998208;28;20456;-85
2021/05/20 18:22:34;;;;;;;3.17;2.87;;;;;;;;;;4999145;28;20500;-85
2021/05/20 18:25:07;;;;;;;2.30;2.10;;;;;;;;;;4999032;28;20890;-84
2021/05/20 18:27:50;;;;;;;4.70;2.63;;;;;;;;;;4983427;28;20429;-84
2021/05/20 18:30:18;;;;;;;5.00;2.30;;;;;;;;;;4981081;28;20424;-84
2021/05/20 18:32:50;;;;;;;3.67;2.20;;;;;;;;;;4998379;28;20452;-86
2021/05/20 18:36:21;;;;;;;2.60;2.40;;;;;;;;;;4982552;28;20541;-85
2021/05/20 18:38:31;;;;;;;1.93;1.73;;;;;;;;;;4937617;29;20909;-85
2021/05/20 18:47:53;;;;;;;3.53;2.20;;;;;;;;;;4924620;29;20487;-85
2021/05/20 18:50:33;;;;;;;3.30;2.47;;;;;;;;;;4983882;28;20410;-85
2021/05/20 19:00:26;;;;;;;3.03;2.73;;;;;;;;;;4928842;28;20430;-86
2021/05/20 19:03:23;;;;;;;4.50;3.10;;;;;;;;;;5008605;28;20417;-85
2021/05/20 19:06:45;;;;;;;;;;;;;;;;;;;;;
2021/05/20 19:09:29;;;;;;;3.00;2.10;;;;;;;;;;5001871;28;20417;-84
2021/05/20 19:12:27;;;;;;;;;;;;;;;;;;;;;
2021/05/20 19:15:53;;;;;;;3.87;2.30;;;;;;;;;;5003613;28;20805;-87
2021/05/20 19:17:58;;;;;;;2.80;2.50;;;;;;;;;;4977775;28;20420;-85
2021/05/20 19:28:56;;;;;;;6.53;4.40;;;;;;;;;;4810038;26;20467;-84
2021/05/20 19:31:33;;;;;;;6.00;3.30;;;;;;;;;;5007091;28;20502;-85
2021/05/20 19:34:55;;;;;;;4.03;3.30;;;;;;;;;;4986310;28;20420;-86
2021/05/20 19:37:36;;;;;;;5.33;3.33;;;;;;;;;;4986498;28;20511;-86
2021/05/20 19:40:40;;;;;;;3.53;2.60;;;;;;;;;;5012970;28;20387;-87
2021/05/20 19:43:35;;;;;;;4.33;3.40;;;;;;;;;;5001625;28;20419;-85
2021/05/20 19:46:30;;;;;;;2.73;2.50;;;;;;;;;;5002393;28;20397;-82
2021/05/20 20:05:01;;;;;;;3.97;3.67;;;;;;;;;;4989994;28;20448;-86
2021/05/20 20:11:27;;;;;;;4.27;3.10;;;;;;;;;;5005580;28;20460;-83
2021/05/20 20:14:10;;;;;;;;;;;;;;;;;;;;;
2021/05/20 20:17:02;;;;;;;10.67;7.77;;;;;;;;;;5005054;28;20459;-85
2021/05/20 20:19:43;;;;;;;6.30;5.50;;;;;;;;;;4989044;28;20793;-86
2021/05/20 20:32:38;;;;;;;;;;;;;;;;;;;;;
2021/05/20 20:44:52;;;;;;;7.20;6.27;;;;;;;;;;5025024;23;20494;-84
2021/05/20 20:47:19;;;;;;;10.53;8.10;;;;;;;;;;5000625;28;20412;-84
2021/05/20 20:49:53;;;;;;;6.57;5.20;;;;;;;;;;5000220;28;20780;-83
2021/05/20 20:52:19;;;;;;;17.33;15.60;;;;;;;;;;5004592;28;20613;-84
2021/05/20 20:54:45;;;;;;;13.70;9.37;;;;;;;;;;5007848;28;20435;-83
2021/05/20 20:57:11;;;;;;;5.23;4.50;;;;;;;;;;4992926;28;20446;-85
2021/05/20 20:59:37;;;;;;;4.30;3.50;;;;;;;;;;5002585;28;20409;-84
2021/05/20 21:02:03;;;;;;;7.50;5.37;;;;;;;;;;5001920;28;20421;-85